TAF and METAR

METAR for Ushuaia - Malvinas Argentinas International Airport

SAWH 141500Z 34012KT 9999 SCT040 OVC080 10/M03 Q0995
Report created 14. des 16:00
wind 12 knots from NNW (340°) visibility > 10km scattered clouds (~50% cover) at 4000 feet overcast at 8000 feet Temperature 10° with dewpoint at -3° (Humidity 39.93%) Pressure 995 hPa

TAF for Ushuaia - Malvinas Argentinas International Airport

TAF SAWH 141100Z 1412/1512 VRB05KT 9999 SCT040 BKN070 TX12/1418Z TN06/1510Z BECMG 1414/1418 34015G25KT BKN030 OVC045
Report created 14. des 12:00

between 14. des 13:00 - 15. des 13:00

wind 5 knots from various directions visibility > 10km scattered clouds (~50% cover) at 4000 feet broken clouds (~75% cover) at 7000 feet Max temperature 12° expected today at around 19 o'clock Min temperature 06° expected tomorrow at around 11 o'clock

becoming between 14. des 15:00 - 14. des 19:00

wind 15 knots from NNW (340°) with gusts up to 25 knots broken clouds (~75% cover) at 3000 feet overcast at 4500 feet
Ushuaia - Malvinas Argentinas International Airport in Argentina at 14m

Latest 5 airports